sensor_id;sensor_type;location;lat;lon;timestamp;pressure;altitude;pressure_sealevel;temperature;humidity
63347;BME280;49472;49.880;8.650;2023-03-13T00:01:21;99424.16;;;18.61;nan
63347;BME280;49472;49.880;8.650;2023-03-13T00:03:47;99430.97;;;18.77;nan
63347;BME280;49472;49.880;8.650;2023-03-13T00:06:12;99418.97;;;19.42;nan
63347;BME280;49472;49.880;8.650;2023-03-13T00:08:38;99413.47;;;18.79;nan
63347;BME280;49472;49.880;8.650;2023-03-13T00:11:05;99403.78;;;18.28;nan
63347;BME280;49472;49.880;8.650;2023-03-13T00:13:31;99397.72;;;18.36;nan
63347;BME280;49472;49.880;8.650;2023-03-13T00:16:01;99393.00;;;18.84;nan
63347;BME280;49472;49.880;8.650;2023-03-13T00:18:26;99394.25;;;18.43;nan
63347;BME280;49472;49.880;8.650;2023-03-13T00:21:02;99385.28;;;19.05;nan
63347;BME280;49472;49.880;8.650;2023-03-13T00:23:28;99387.31;;;19.10;nan
63347;BME280;49472;49.880;8.650;2023-03-13T00:28:22;99388.00;;;18.68;nan
63347;BME280;49472;49.880;8.650;2023-03-13T00:30:48;99380.53;;;18.58;nan
63347;BME280;49472;49.880;8.650;2023-03-13T00:33:13;99370.72;;;19.04;nan
63347;BME280;49472;49.880;8.650;2023-03-13T00:35:38;99372.38;;;18.16;nan
63347;BME280;49472;49.880;8.650;2023-03-13T00:38:03;99365.41;;;18.91;nan
63347;BME280;49472;49.880;8.650;2023-03-13T00:40:29;99359.75;;;19.02;nan
63347;BME280;49472;49.880;8.650;2023-03-13T00:42:54;99364.66;;;18.97;nan
63347;BME280;49472;49.880;8.650;2023-03-13T00:45:19;99346.34;;;18.99;nan
63347;BME280;49472;49.880;8.650;2023-03-13T00:47:45;99350.34;;;18.50;nan
63347;BME280;49472;49.880;8.650;2023-03-13T00:50:10;99349.75;;;18.99;nan
63347;BME280;49472;49.880;8.650;2023-03-13T00:52:36;99343.59;;;19.22;nan
63347;BME280;49472;49.880;8.650;2023-03-13T00:55:01;99345.63;;;19.05;nan
63347;BME280;49472;49.880;8.650;2023-03-13T00:57:26;99341.44;;;19.68;nan
63347;BME280;49472;49.880;8.650;2023-03-13T00:59:52;99331.47;;;18.86;nan
63347;BME280;49472;49.880;8.650;2023-03-13T01:02:17;99340.41;;;18.83;nan
63347;BME280;49472;49.880;8.650;2023-03-13T01:04:42;99307.88;;;19.17;nan
63347;BME280;49472;49.880;8.650;2023-03-13T01:07:08;99312.91;;;19.25;nan
63347;BME280;49472;49.880;8.650;2023-03-13T01:09:33;99302.59;;;20.10;nan
63347;BME280;49472;49.880;8.650;2023-03-13T01:11:58;99301.69;;;20.31;nan
63347;BME280;49472;49.880;8.650;2023-03-13T01:14:23;99300.41;;;19.07;nan
63347;BME280;49472;49.880;8.650;2023-03-13T01:16:49;99297.44;;;18.89;nan
63347;BME280;49472;49.880;8.650;2023-03-13T01:19:15;99288.56;;;19.41;nan
63347;BME280;49472;49.880;8.650;2023-03-13T01:21:42;99277.44;;;19.76;nan
63347;BME280;49472;49.880;8.650;2023-03-13T01:24:08;99268.69;;;19.27;nan
63347;BME280;49472;49.880;8.650;2023-03-13T01:26:33;99263.50;;;19.55;nan
63347;BME280;49472;49.880;8.650;2023-03-13T01:28:58;99269.09;;;19.30;nan
63347;BME280;49472;49.880;8.650;2023-03-13T01:31:27;99258.75;;;19.59;nan
63347;BME280;49472;49.880;8.650;2023-03-13T01:33:54;99262.38;;;18.72;nan
63347;BME280;49472;49.880;8.650;2023-03-13T01:36:20;99253.63;;;19.16;nan
63347;BME280;49472;49.880;8.650;2023-03-13T01:38:51;99247.84;;;19.14;nan
63347;BME280;49472;49.880;8.650;2023-03-13T01:41:18;99256.19;;;19.09;nan
63347;BME280;49472;49.880;8.650;2023-03-13T01:43:44;99244.72;;;18.97;nan
63347;BME280;49472;49.880;8.650;2023-03-13T01:46:14;99237.81;;;19.60;nan
63347;BME280;49472;49.880;8.650;2023-03-13T01:49:07;99228.09;;;19.34;nan
63347;BME280;49472;49.880;8.650;2023-03-13T01:51:37;99225.47;;;19.97;nan
63347;BME280;49472;49.880;8.650;2023-03-13T01:56:42;99213.25;;;19.56;nan
63347;BME280;49472;49.880;8.650;2023-03-13T01:59:14;99225.56;;;18.98;nan
63347;BME280;49472;49.880;8.650;2023-03-13T02:01:41;99207.31;;;19.62;nan
63347;BME280;49472;49.880;8.650;2023-03-13T02:04:08;99205.84;;;19.46;nan
63347;BME280;49472;49.880;8.650;2023-03-13T02:06:35;99192.72;;;19.55;nan
63347;BME280;49472;49.880;8.650;2023-03-13T02:09:07;99184.13;;;20.44;nan
63347;BME280;49472;49.880;8.650;2023-03-13T02:11:47;99187.38;;;19.98;nan
63347;BME280;49472;49.880;8.650;2023-03-13T02:14:16;99178.91;;;20.30;nan
63347;BME280;49472;49.880;8.650;2023-03-13T02:16:42;99180.38;;;20.05;nan
63347;BME280;49472;49.880;8.650;2023-03-13T02:24:51;99184.06;;;18.70;nan
63347;BME280;49472;49.880;8.650;2023-03-13T02:27:19;99166.91;;;19.12;nan
63347;BME280;49472;49.880;8.650;2023-03-13T02:29:44;99173.91;;;19.18;nan
63347;BME280;49472;49.880;8.650;2023-03-13T02:32:10;99171.38;;;19.24;nan
63347;BME280;49472;49.880;8.650;2023-03-13T02:34:38;99157.63;;;18.96;nan
63347;BME280;49472;49.880;8.650;2023-03-13T02:37:06;99163.50;;;18.83;nan
63347;BME280;49472;49.880;8.650;2023-03-13T02:39:36;99153.97;;;18.90;nan
63347;BME280;49472;49.880;8.650;2023-03-13T02:42:03;99159.78;;;19.20;nan
63347;BME280;49472;49.880;8.650;2023-03-13T02:44:29;99136.75;;;18.76;nan
63347;BME280;49472;49.880;8.650;2023-03-13T02:46:55;99143.69;;;19.25;nan
63347;BME280;49472;49.880;8.650;2023-03-13T02:49:29;99146.78;;;18.64;nan
63347;BME280;49472;49.880;8.650;2023-03-13T02:51:57;99138.78;;;19.78;nan
63347;BME280;49472;49.880;8.650;2023-03-13T02:54:34;99132.53;;;18.96;nan
63347;BME280;49472;49.880;8.650;2023-03-13T02:57:03;99121.28;;;19.93;nan
63347;BME280;49472;49.880;8.650;2023-03-13T02:59:29;99129.81;;;18.18;nan
63347;BME280;49472;49.880;8.650;2023-03-13T03:01:54;99118.38;;;18.71;nan
63347;BME280;49472;49.880;8.650;2023-03-13T03:04:21;99099.69;;;18.54;nan
63347;BME280;49472;49.880;8.650;2023-03-13T03:06:48;99092.31;;;18.51;nan
63347;BME280;49472;49.880;8.650;2023-03-13T03:09:14;99093.84;;;18.45;nan
63347;BME280;49472;49.880;8.650;2023-03-13T03:11:39;99090.03;;;18.19;nan
63347;BME280;49472;49.880;8.650;2023-03-13T03:14:05;99100.69;;;18.53;nan
63347;BME280;49472;49.880;8.650;2023-03-13T03:16:31;99085.94;;;19.03;nan
63347;BME280;49472;49.880;8.650;2023-03-13T03:18:56;99082.16;;;19.05;nan
63347;BME280;49472;49.880;8.650;2023-03-13T03:21:21;99087.81;;;18.87;nan
63347;BME280;49472;49.880;8.650;2023-03-13T03:23:48;99081.22;;;18.78;nan
63347;BME280;49472;49.880;8.650;2023-03-13T03:26:14;99071.75;;;18.71;nan
63347;BME280;49472;49.880;8.650;2023-03-13T03:28:39;99076.50;;;18.89;nan
63347;BME280;49472;49.880;8.650;2023-03-13T03:31:09;99077.88;;;18.41;nan
63347;BME280;49472;49.880;8.650;2023-03-13T03:33:35;99073.22;;;18.80;nan
63347;BME280;49472;49.880;8.650;2023-03-13T03:36:02;99078.59;;;21.16;nan
63347;BME280;49472;49.880;8.650;2023-03-13T03:38:29;99082.53;;;19.37;nan
63347;BME280;49472;49.880;8.650;2023-03-13T03:40:54;99086.75;;;19.80;nan
63347;BME280;49472;49.880;8.650;2023-03-13T03:43:19;99095.28;;;19.32;nan
63347;BME280;49472;49.880;8.650;2023-03-13T03:45:45;99071.66;;;23.55;nan
63347;BME280;49472;49.880;8.650;2023-03-13T03:48:10;99080.47;;;20.62;nan
63347;BME280;49472;49.880;8.650;2023-03-13T03:50:35;99073.75;;;22.48;nan
63347;BME280;49472;49.880;8.650;2023-03-13T03:53:01;99064.84;;;24.03;nan
63347;BME280;49472;49.880;8.650;2023-03-13T03:55:26;99074.63;;;21.72;nan
63347;BME280;49472;49.880;8.650;2023-03-13T03:57:51;99078.25;;;20.39;nan
63347;BME280;49472;49.880;8.650;2023-03-13T04:00:17;99090.22;;;17.96;nan
63347;BME280;49472;49.880;8.650;2023-03-13T04:02:43;99083.38;;;17.89;nan
63347;BME280;49472;49.880;8.650;2023-03-13T04:05:09;99071.47;;;18.16;nan
63347;BME280;49472;49.880;8.650;2023-03-13T04:07:34;99068.31;;;18.63;nan
63347;BME280;49472;49.880;8.650;2023-03-13T04:10:00;99046.00;;;18.34;nan
63347;BME280;49472;49.880;8.650;2023-03-13T04:12:25;99057.91;;;18.57;nan
63347;BME280;49472;49.880;8.650;2023-03-13T04:14:50;99052.09;;;17.84;nan
63347;BME280;49472;49.880;8.650;2023-03-13T04:17:16;99055.19;;;19.76;nan
63347;BME280;49472;49.880;8.650;2023-03-13T04:19:42;99041.25;;;19.77;nan
63347;BME280;49472;49.880;8.650;2023-03-13T04:22:07;99052.38;;;19.23;nan
63347;BME280;49472;49.880;8.650;2023-03-13T04:24:33;99043.41;;;19.73;nan
63347;BME280;49472;49.880;8.650;2023-03-13T04:26:58;99035.69;;;19.32;nan
63347;BME280;49472;49.880;8.650;2023-03-13T04:29:24;99037.88;;;19.35;nan
63347;BME280;49472;49.880;8.650;2023-03-13T04:31:49;99052.06;;;19.04;nan
63347;BME280;49472;49.880;8.650;2023-03-13T04:34:15;99043.66;;;19.92;nan
63347;BME280;49472;49.880;8.650;2023-03-13T04:36:40;99056.25;;;19.05;nan
63347;BME280;49472;49.880;8.650;2023-03-13T04:39:05;99052.13;;;19.11;nan
63347;BME280;49472;49.880;8.650;2023-03-13T04:41:31;99050.53;;;19.58;nan
63347;BME280;49472;49.880;8.650;2023-03-13T04:43:56;99049.91;;;20.31;nan
63347;BME280;49472;49.880;8.650;2023-03-13T04:46:21;99045.91;;;20.28;nan
63347;BME280;49472;49.880;8.650;2023-03-13T04:48:47;99038.09;;;20.02;nan
63347;BME280;49472;49.880;8.650;2023-03-13T04:51:12;99037.91;;;20.63;nan
63347;BME280;49472;49.880;8.650;2023-03-13T04:53:37;99031.56;;;19.09;nan
63347;BME280;49472;49.880;8.650;2023-03-13T04:56:03;99031.25;;;19.74;nan
63347;BME280;49472;49.880;8.650;2023-03-13T04:58:28;98998.84;;;19.50;nan
63347;BME280;49472;49.880;8.650;2023-03-13T05:00:53;99007.59;;;20.30;nan
63347;BME280;49472;49.880;8.650;2023-03-13T05:03:20;99013.34;;;18.90;nan
63347;BME280;49472;49.880;8.650;2023-03-13T05:05:45;98996.69;;;19.60;nan
63347;BME280;49472;49.880;8.650;2023-03-13T05:08:11;99002.16;;;19.24;nan
63347;BME280;49472;49.880;8.650;2023-03-13T05:10:36;99022.97;;;19.02;nan
63347;BME280;49472;49.880;8.650;2023-03-13T05:13:01;99015.56;;;20.15;nan
63347;BME280;49472;49.880;8.650;2023-03-13T05:15:27;99022.50;;;19.88;nan
63347;BME280;49472;49.880;8.650;2023-03-13T05:17:52;99007.03;;;19.53;nan
63347;BME280;49472;49.880;8.650;2023-03-13T05:20:17;99004.75;;;19.24;nan
63347;BME280;49472;49.880;8.650;2023-03-13T05:22:43;98992.59;;;18.83;nan
63347;BME280;49472;49.880;8.650;2023-03-13T05:25:08;98997.63;;;18.91;nan
63347;BME280;49472;49.880;8.650;2023-03-13T05:27:34;99000.78;;;19.35;nan
63347;BME280;49472;49.880;8.650;2023-03-13T05:29:59;98986.38;;;19.67;nan
63347;BME280;49472;49.880;8.650;2023-03-13T05:32:24;98978.72;;;19.59;nan
63347;BME280;49472;49.880;8.650;2023-03-13T05:34:49;98978.47;;;19.34;nan
63347;BME280;49472;49.880;8.650;2023-03-13T05:37:15;98990.88;;;19.51;nan
63347;BME280;49472;49.880;8.650;2023-03-13T05:39:40;98961.97;;;19.55;nan
63347;BME280;49472;49.880;8.650;2023-03-13T05:42:05;98971.88;;;19.38;nan
63347;BME280;49472;49.880;8.650;2023-03-13T05:44:30;98961.66;;;19.23;nan
63347;BME280;49472;49.880;8.650;2023-03-13T05:46:56;98955.63;;;19.02;nan
63347;BME280;49472;49.880;8.650;2023-03-13T05:49:21;98957.41;;;18.67;nan
63347;BME280;49472;49.880;8.650;2023-03-13T05:51:46;98980.09;;;18.93;nan
63347;BME280;49472;49.880;8.650;2023-03-13T05:54:12;98974.84;;;19.28;nan
63347;BME280;49472;49.880;8.650;2023-03-13T05:56:37;98994.03;;;19.34;nan
63347;BME280;49472;49.880;8.650;2023-03-13T05:59:02;98972.63;;;19.86;nan
63347;BME280;49472;49.880;8.650;2023-03-13T06:01:28;98980.31;;;19.53;nan
63347;BME280;49472;49.880;8.650;2023-03-13T06:03:53;98973.22;;;20.08;nan
63347;BME280;49472;49.880;8.650;2023-03-13T06:06:18;98975.66;;;19.35;nan
63347;BME280;49472;49.880;8.650;2023-03-13T06:08:44;98983.88;;;19.39;nan
63347;BME280;49472;49.880;8.650;2023-03-13T06:11:09;98980.53;;;19.58;nan
63347;BME280;49472;49.880;8.650;2023-03-13T06:13:34;98974.03;;;20.35;nan
63347;BME280;49472;49.880;8.650;2023-03-13T06:16:00;98967.28;;;19.26;nan
63347;BME280;49472;49.880;8.650;2023-03-13T06:18:25;98976.00;;;19.73;nan
63347;BME280;49472;49.880;8.650;2023-03-13T06:20:59;98982.31;;;19.58;nan
63347;BME280;49472;49.880;8.650;2023-03-13T06:23:25;98972.22;;;19.15;nan
63347;BME280;49472;49.880;8.650;2023-03-13T06:25:51;98949.44;;;19.71;nan
63347;BME280;49472;49.880;8.650;2023-03-13T06:28:16;98963.13;;;19.39;nan
63347;BME280;49472;49.880;8.650;2023-03-13T06:30:41;98946.88;;;19.78;nan
63347;BME280;49472;49.880;8.650;2023-03-13T06:33:07;98949.63;;;19.63;nan
63347;BME280;49472;49.880;8.650;2023-03-13T06:35:32;98958.25;;;19.77;nan
63347;BME280;49472;49.880;8.650;2023-03-13T06:37:58;98964.63;;;19.75;nan
63347;BME280;49472;49.880;8.650;2023-03-13T06:40:23;98968.63;;;20.17;nan
63347;BME280;49472;49.880;8.650;2023-03-13T06:42:49;98955.66;;;19.84;nan
63347;BME280;49472;49.880;8.650;2023-03-13T06:45:14;98958.75;;;19.46;nan
63347;BME280;49472;49.880;8.650;2023-03-13T06:47:39;98949.66;;;20.30;nan
63347;BME280;49472;49.880;8.650;2023-03-13T06:50:05;98956.28;;;19.18;nan
63347;BME280;49472;49.880;8.650;2023-03-13T06:52:30;98961.38;;;19.52;nan
63347;BME280;49472;49.880;8.650;2023-03-13T06:54:56;98961.53;;;19.38;nan
63347;BME280;49472;49.880;8.650;2023-03-13T06:57:21;98966.59;;;19.04;nan
63347;BME280;49472;49.880;8.650;2023-03-13T06:59:46;98957.16;;;19.45;nan
63347;BME280;49472;49.880;8.650;2023-03-13T07:02:11;98946.09;;;20.04;nan
63347;BME280;49472;49.880;8.650;2023-03-13T07:04:37;98942.69;;;20.30;nan
63347;BME280;49472;49.880;8.650;2023-03-13T07:07:03;98943.69;;;19.69;nan
63347;BME280;49472;49.880;8.650;2023-03-13T07:09:28;98948.03;;;20.42;nan
63347;BME280;49472;49.880;8.650;2023-03-13T07:11:53;98947.75;;;20.84;nan
63347;BME280;49472;49.880;8.650;2023-03-13T07:14:19;98945.69;;;21.12;nan
63347;BME280;49472;49.880;8.650;2023-03-13T07:16:45;98932.00;;;20.78;nan
63347;BME280;49472;49.880;8.650;2023-03-13T07:19:10;98942.06;;;20.48;nan
63347;BME280;49472;49.880;8.650;2023-03-13T07:21:36;98949.59;;;19.50;nan
63347;BME280;49472;49.880;8.650;2023-03-13T07:24:01;98953.06;;;20.24;nan
63347;BME280;49472;49.880;8.650;2023-03-13T07:26:26;98949.84;;;20.55;nan
63347;BME280;49472;49.880;8.650;2023-03-13T07:28:51;98942.03;;;20.68;nan
63347;BME280;49472;49.880;8.650;2023-03-13T07:31:19;98961.44;;;20.46;nan
63347;BME280;49472;49.880;8.650;2023-03-13T07:33:45;98963.72;;;19.41;nan
63347;BME280;49472;49.880;8.650;2023-03-13T07:36:12;98951.25;;;19.84;nan
63347;BME280;49472;49.880;8.650;2023-03-13T07:38:38;98959.44;;;19.75;nan
63347;BME280;49472;49.880;8.650;2023-03-13T07:41:04;98949.50;;;19.85;nan
63347;BME280;49472;49.880;8.650;2023-03-13T07:43:29;98957.59;;;19.55;nan
63347;BME280;49472;49.880;8.650;2023-03-13T07:48:23;98949.84;;;20.35;nan
63347;BME280;49472;49.880;8.650;2023-03-13T07:50:50;98949.47;;;20.18;nan
63347;BME280;49472;49.880;8.650;2023-03-13T07:53:15;98953.75;;;19.38;nan
63347;BME280;49472;49.880;8.650;2023-03-13T07:58:17;98953.13;;;19.36;nan
63347;BME280;49472;49.880;8.650;2023-03-13T08:00:42;98978.50;;;19.47;nan
63347;BME280;49472;49.880;8.650;2023-03-13T08:03:08;98950.06;;;19.80;nan
63347;BME280;49472;49.880;8.650;2023-03-13T08:05:33;98950.69;;;19.95;nan
63347;BME280;49472;49.880;8.650;2023-03-13T08:07:58;98956.88;;;20.01;nan
63347;BME280;49472;49.880;8.650;2023-03-13T08:10:24;98936.47;;;19.71;nan
63347;BME280;49472;49.880;8.650;2023-03-13T08:12:49;98927.91;;;19.64;nan
63347;BME280;49472;49.880;8.650;2023-03-13T08:15:14;98936.28;;;20.39;nan
63347;BME280;49472;49.880;8.650;2023-03-13T08:17:40;98932.13;;;19.99;nan
63347;BME280;49472;49.880;8.650;2023-03-13T08:20:05;98948.69;;;19.91;nan
63347;BME280;49472;49.880;8.650;2023-03-13T08:22:32;98932.47;;;20.42;nan
63347;BME280;49472;49.880;8.650;2023-03-13T08:24:57;98931.66;;;20.55;nan
63347;BME280;49472;49.880;8.650;2023-03-13T08:27:22;98943.06;;;20.27;nan
63347;BME280;49472;49.880;8.650;2023-03-13T08:29:48;98938.19;;;20.77;nan
63347;BME280;49472;49.880;8.650;2023-03-13T08:32:13;98941.94;;;21.01;nan
63347;BME280;49472;49.880;8.650;2023-03-13T08:34:38;98946.28;;;20.56;nan
63347;BME280;49472;49.880;8.650;2023-03-13T08:37:04;98961.66;;;19.98;nan
63347;BME280;49472;49.880;8.650;2023-03-13T08:39:29;98942.94;;;20.94;nan
63347;BME280;49472;49.880;8.650;2023-03-13T08:41:54;98951.94;;;21.36;nan
63347;BME280;49472;49.880;8.650;2023-03-13T08:44:20;98964.16;;;20.84;nan
63347;BME280;49472;49.880;8.650;2023-03-13T08:46:45;98957.19;;;20.78;nan
63347;BME280;49472;49.880;8.650;2023-03-13T08:49:12;98957.84;;;21.57;nan
63347;BME280;49472;49.880;8.650;2023-03-13T08:51:37;98952.63;;;20.60;nan
63347;BME280;49472;49.880;8.650;2023-03-13T08:54:03;98958.72;;;21.44;nan
63347;BME280;49472;49.880;8.650;2023-03-13T08:56:29;98968.34;;;21.43;nan
63347;BME280;49472;49.880;8.650;2023-03-13T08:58:57;98971.69;;;21.82;nan
63347;BME280;49472;49.880;8.650;2023-03-13T09:01:25;98956.75;;;22.46;nan
63347;BME280;49472;49.880;8.650;2023-03-13T09:03:51;98976.78;;;21.71;nan
63347;BME280;49472;49.880;8.650;2023-03-13T09:06:17;98982.94;;;21.38;nan
63347;BME280;49472;49.880;8.650;2023-03-13T09:08:43;98974.44;;;22.19;nan
63347;BME280;49472;49.880;8.650;2023-03-13T09:11:11;98960.97;;;21.40;nan
63347;BME280;49472;49.880;8.650;2023-03-13T09:13:39;98955.78;;;20.82;nan
63347;BME280;49472;49.880;8.650;2023-03-13T09:16:07;98948.91;;;21.78;nan
63347;BME280;49472;49.880;8.650;2023-03-13T09:18:34;98947.88;;;21.09;nan
63347;BME280;49472;49.880;8.650;2023-03-13T09:21:00;98938.16;;;21.36;nan
63347;BME280;49472;49.880;8.650;2023-03-13T09:23:25;98941.41;;;21.24;nan
63347;BME280;49472;49.880;8.650;2023-03-13T09:25:52;98926.19;;;21.66;nan
63347;BME280;49472;49.880;8.650;2023-03-13T09:28:18;98947.59;;;20.78;nan
63347;BME280;49472;49.880;8.650;2023-03-13T09:30:44;98926.34;;;20.95;nan
63347;BME280;49472;49.880;8.650;2023-03-13T09:33:09;98960.44;;;21.57;nan
63347;BME280;49472;49.880;8.650;2023-03-13T09:35:37;98914.66;;;21.56;nan
63347;BME280;49472;49.880;8.650;2023-03-13T09:38:02;98900.53;;;21.45;nan
63347;BME280;49472;49.880;8.650;2023-03-13T09:40:28;98898.72;;;21.45;nan
63347;BME280;49472;49.880;8.650;2023-03-13T09:42:58;98905.06;;;21.50;nan
63347;BME280;49472;49.880;8.650;2023-03-13T09:45:30;98920.91;;;21.48;nan
63347;BME280;49472;49.880;8.650;2023-03-13T09:48:03;98899.69;;;22.45;nan
63347;BME280;49472;49.880;8.650;2023-03-13T09:50:35;98927.06;;;21.54;nan
63347;BME280;49472;49.880;8.650;2023-03-13T09:53:16;98892.97;;;22.56;nan
63347;BME280;49472;49.880;8.650;2023-03-13T09:55:44;98880.94;;;22.73;nan
63347;BME280;49472;49.880;8.650;2023-03-13T09:58:16;98874.09;;;22.90;nan
63347;BME280;49472;49.880;8.650;2023-03-13T10:00:53;98889.91;;;21.97;nan
63347;BME280;49472;49.880;8.650;2023-03-13T10:06:05;98873.66;;;22.45;nan
63347;BME280;49472;49.880;8.650;2023-03-13T10:08:35;98870.41;;;23.28;nan
63347;BME280;49472;49.880;8.650;2023-03-13T10:11:24;98865.81;;;23.54;nan
63347;BME280;49472;49.880;8.650;2023-03-13T10:16:43;98866.31;;;24.10;nan
63347;BME280;49472;49.880;8.650;2023-03-13T10:19:15;98886.84;;;22.62;nan
63347;BME280;49472;49.880;8.650;2023-03-13T10:21:44;98893.13;;;22.91;nan
63347;BME280;49472;49.880;8.650;2023-03-13T10:24:41;98873.09;;;23.99;nan
63347;BME280;49472;49.880;8.650;2023-03-13T10:27:14;98896.09;;;22.94;nan
63347;BME280;49472;49.880;8.650;2023-03-13T10:29:39;98870.66;;;22.78;nan
63347;BME280;49472;49.880;8.650;2023-03-13T10:32:07;98894.63;;;22.50;nan
63347;BME280;49472;49.880;8.650;2023-03-13T10:34:56;98856.38;;;23.65;nan
63347;BME280;49472;49.880;8.650;2023-03-13T10:37:25;98882.94;;;22.71;nan
63347;BME280;49472;49.880;8.650;2023-03-13T10:39:51;98862.06;;;22.89;nan
63347;BME280;49472;49.880;8.650;2023-03-13T10:42:20;98868.41;;;23.00;nan
63347;BME280;49472;49.880;8.650;2023-03-13T10:44:46;98852.31;;;22.85;nan
63347;BME280;49472;49.880;8.650;2023-03-13T10:47:12;98854.59;;;23.11;nan
63347;BME280;49472;49.880;8.650;2023-03-13T10:49:54;98868.84;;;22.79;nan
63347;BME280;49472;49.880;8.650;2023-03-13T10:52:40;98857.03;;;23.48;nan
63347;BME280;49472;49.880;8.650;2023-03-13T10:55:10;98862.88;;;23.20;nan
63347;BME280;49472;49.880;8.650;2023-03-13T10:57:36;98863.22;;;22.45;nan
63347;BME280;49472;49.880;8.650;2023-03-13T11:00:37;98861.69;;;22.56;nan
63347;BME280;49472;49.880;8.650;2023-03-13T11:03:14;98853.22;;;23.09;nan
63347;BME280;49472;49.880;8.650;2023-03-13T11:05:42;98855.97;;;22.65;nan
63347;BME280;49472;49.880;8.650;2023-03-13T11:08:18;98853.22;;;22.60;nan
63347;BME280;49472;49.880;8.650;2023-03-13T11:11:18;98830.28;;;23.53;nan
63347;BME280;49472;49.880;8.650;2023-03-13T11:13:44;98847.38;;;23.37;nan
63347;BME280;49472;49.880;8.650;2023-03-13T11:16:21;98822.38;;;23.06;nan
63347;BME280;49472;49.880;8.650;2023-03-13T11:21:43;98829.69;;;23.15;nan
63347;BME280;49472;49.880;8.650;2023-03-13T11:32:41;98773.47;;;24.88;nan
63347;BME280;49472;49.880;8.650;2023-03-13T11:37:54;98768.88;;;24.09;nan
63347;BME280;49472;49.880;8.650;2023-03-13T11:40:29;98762.84;;;24.09;nan
63347;BME280;49472;49.880;8.650;2023-03-13T11:46:21;98757.81;;;23.78;nan
63347;BME280;49472;49.880;8.650;2023-03-13T11:49:03;98740.75;;;25.02;nan
63347;BME280;49472;49.880;8.650;2023-03-13T11:57:13;98732.78;;;24.06;nan
63347;BME280;49472;49.880;8.650;2023-03-13T12:02:36;98728.56;;;23.29;nan
63347;BME280;49472;49.880;8.650;2023-03-13T12:05:08;98709.84;;;24.37;nan
63347;BME280;49472;49.880;8.650;2023-03-13T12:08:11;98712.31;;;23.51;nan
63347;BME280;49472;49.880;8.650;2023-03-13T12:10:44;98679.69;;;24.58;nan
63347;BME280;49472;49.880;8.650;2023-03-13T12:13:16;98687.75;;;24.56;nan
63347;BME280;49472;49.880;8.650;2023-03-13T12:15:50;98687.13;;;24.37;nan
63347;BME280;49472;49.880;8.650;2023-03-13T12:18:20;98688.72;;;25.18;nan
63347;BME280;49472;49.880;8.650;2023-03-13T12:21:04;98677.31;;;25.46;nan
63347;BME280;49472;49.880;8.650;2023-03-13T12:26:17;98675.53;;;25.12;nan
63347;BME280;49472;49.880;8.650;2023-03-13T12:28:50;98666.06;;;26.38;nan
63347;BME280;49472;49.880;8.650;2023-03-13T12:31:25;98669.13;;;26.03;nan
63347;BME280;49472;49.880;8.650;2023-03-13T12:34:16;98657.16;;;25.85;nan
63347;BME280;49472;49.880;8.650;2023-03-13T12:44:58;98636.53;;;25.28;nan
63347;BME280;49472;49.880;8.650;2023-03-13T12:47:31;98630.09;;;25.58;nan
63347;BME280;49472;49.880;8.650;2023-03-13T12:50:14;98633.00;;;25.17;nan
63347;BME280;49472;49.880;8.650;2023-03-13T12:55:57;98618.16;;;25.06;nan
63347;BME280;49472;49.880;8.650;2023-03-13T12:58:45;98611.06;;;25.40;nan
63347;BME280;49472;49.880;8.650;2023-03-13T13:01:43;98599.19;;;25.32;nan
63347;BME280;49472;49.880;8.650;2023-03-13T13:04:13;98599.53;;;25.85;nan
63347;BME280;49472;49.880;8.650;2023-03-13T13:09:32;98586.59;;;26.01;nan
63347;BME280;49472;49.880;8.650;2023-03-13T13:12:15;98576.13;;;25.78;nan
63347;BME280;49472;49.880;8.650;2023-03-13T13:32:39;98517.44;;;27.44;nan
63347;BME280;49472;49.880;8.650;2023-03-13T13:37:40;98503.72;;;27.22;nan
63347;BME280;49472;49.880;8.650;2023-03-13T13:42:51;98478.94;;;30.15;nan
63347;BME280;49472;49.880;8.650;2023-03-13T13:45:19;98452.91;;;33.00;nan
63347;BME280;49472;49.880;8.650;2023-03-13T13:47:47;98465.16;;;31.14;nan
63347;BME280;49472;49.880;8.650;2023-03-13T13:50:17;98449.16;;;31.44;nan
63347;BME280;49472;49.880;8.650;2023-03-13T13:52:43;98461.94;;;29.29;nan
63347;BME280;49472;49.880;8.650;2023-03-13T13:57:46;98466.78;;;28.16;nan
63347;BME280;49472;49.880;8.650;2023-03-13T14:00:22;98434.06;;;26.78;nan
63347;BME280;49472;49.880;8.650;2023-03-13T14:02:54;98429.78;;;27.40;nan
63347;BME280;49472;49.880;8.650;2023-03-13T14:05:25;98414.06;;;29.56;nan
63347;BME280;49472;49.880;8.650;2023-03-13T14:12:59;98396.88;;;31.08;nan
63347;BME280;49472;49.880;8.650;2023-03-13T14:15:30;98385.19;;;30.52;nan
63347;BME280;49472;49.880;8.650;2023-03-13T14:20:35;98390.16;;;30.35;nan
63347;BME280;49472;49.880;8.650;2023-03-13T14:23:09;98383.69;;;30.89;nan
63347;BME280;49472;49.880;8.650;2023-03-13T14:25:44;98366.59;;;29.95;nan
63347;BME280;49472;49.880;8.650;2023-03-13T14:28:18;98376.28;;;32.31;nan
63347;BME280;49472;49.880;8.650;2023-03-13T14:30:45;98357.13;;;30.80;nan
63347;BME280;49472;49.880;8.650;2023-03-13T14:33:11;98381.13;;;30.41;nan
63347;BME280;49472;49.880;8.650;2023-03-13T14:35:38;98379.22;;;29.98;nan
63347;BME280;49472;49.880;8.650;2023-03-13T14:38:04;98338.84;;;32.37;nan
63347;BME280;49472;49.880;8.650;2023-03-13T14:40:30;98335.06;;;31.88;nan
63347;BME280;49472;49.880;8.650;2023-03-13T14:43:00;98309.97;;;33.54;nan
63347;BME280;49472;49.880;8.650;2023-03-13T14:45:31;98304.91;;;34.41;nan
63347;BME280;49472;49.880;8.650;2023-03-13T14:48:02;98288.66;;;32.60;nan
63347;BME280;49472;49.880;8.650;2023-03-13T14:50:28;98285.91;;;32.65;nan
63347;BME280;49472;49.880;8.650;2023-03-13T14:52:58;98273.25;;;33.69;nan
63347;BME280;49472;49.880;8.650;2023-03-13T14:55:28;98276.44;;;32.95;nan
63347;BME280;49472;49.880;8.650;2023-03-13T15:00:28;98274.28;;;30.81;nan
63347;BME280;49472;49.880;8.650;2023-03-13T15:03:18;98276.53;;;29.40;nan
63347;BME280;49472;49.880;8.650;2023-03-13T15:06:06;98274.56;;;28.87;nan
63347;BME280;49472;49.880;8.650;2023-03-13T15:08:40;98274.91;;;27.61;nan